Time;durP1;ratioP1;P1;durP2;ratioP2;P2;SDS_P1;SDS_P2;PMS_P1;PMS_P2;Temp;Humidity;BMP_temperature;BMP_pressure;BME280_temperature;BME280_humidity;BME280_pressure;Samples;Min_cycle;Max_cycle;Signal;HPM_P1;HPM_P2
2022/01/06 00:00:28;;;;;;;5.50;2.90;;;;;;98921.20;;;;106940;1279;64907;-41
2022/01/06 00:03:03;;;;;;;6.60;3.00;;;;;;98912.09;;;;106828;1280;64669;-35
2022/01/06 00:05:31;;;;;;;6.00;2.80;;;;;;98907.66;;;;106881;1281;64948;-34
2022/01/06 00:07:58;;;;;;;6.00;2.90;;;;;;98902.21;;;;106947;1279;64799;-36
2022/01/06 00:10:28;;;;;;;6.00;3.10;;;;;;98899.02;;;;106904;1279;65952;-37
2022/01/06 00:15:59;;;;;;;4.80;2.50;;;;;;98901.71;;;;106919;1279;64890;-34
2022/01/06 00:24:06;;;;;;;7.40;2.90;;;;;;98904.35;;;;106945;1279;67418;-28
2022/01/06 00:26:33;;;;;;;6.90;2.70;;;;;;98904.98;;;;106876;1281;64769;-30
2022/01/06 00:29:02;;;;;;;5.40;2.50;;;;;;98896.50;;;;106954;1279;64870;-34
2022/01/06 00:31:30;;;;;;;5.00;2.50;;;;;;98896.91;;;;106957;1279;64793;-37
2022/01/06 00:33:57;;;;;;;5.10;2.50;;;;;;98891.79;;;;106905;1281;64058;-36
2022/01/06 00:36:24;;;;;;;4.80;2.40;;;;;;98895.38;;;;106888;1281;66778;-33
2022/01/06 00:38:51;;;;;;;6.40;2.70;;;;;;98894.56;;;;106914;1279;64790;-39
2022/01/06 00:41:21;;;;;;;6.70;2.70;;;;;;98895.11;;;;106923;1278;64821;-32
2022/01/06 00:43:48;;;;;;;5.00;2.60;;;;;;98898.81;;;;106961;1280;64764;-33
2022/01/06 00:46:18;;;;;;;4.80;2.30;;;;;;98898.27;;;;106855;1280;64876;-31
2022/01/06 00:48:46;;;;;;;5.50;2.50;;;;;;98898.53;;;;106996;1280;64840;-38
2022/01/06 00:51:13;;;;;;;5.90;2.40;;;;;;98891.88;;;;106897;1280;64836;-33
2022/01/06 00:53:40;;;;;;;6.30;2.90;;;;;;98892.95;;;;106965;1280;64849;-34
2022/01/06 00:56:07;;;;;;;6.10;3.10;;;;;;98896.03;;;;106861;1280;64874;-34
2022/01/06 00:58:35;;;;;;;5.00;2.30;;;;;;98897.15;;;;106867;1280;64837;-35
2022/01/06 01:01:02;;;;;;;5.40;2.40;;;;;;98894.52;;;;106917;1280;66010;-34
2022/01/06 01:03:30;;;;;;;5.60;2.60;;;;;;98894.36;;;;106575;1280;409872;-35
2022/01/06 01:05:58;;;;;;;5.00;2.50;;;;;;98891.09;;;;106911;1280;64889;-52
2022/01/06 01:08:26;;;;;;;5.00;2.40;;;;;;98888.29;;;;106900;1280;64786;-34
2022/01/06 01:10:55;;;;;;;4.70;2.30;;;;;;98887.23;;;;106968;1279;64980;-32
2022/01/06 01:13:31;;;;;;;5.30;2.90;;;;;;98884.45;;;;106966;1280;65010;-32
2022/01/06 01:16:10;;;;;;;6.60;2.70;;;;;;98882.35;;;;106962;1280;64760;-33
2022/01/06 01:18:44;;;;;;;5.10;2.50;;;;;;98880.77;;;;106964;1280;64769;-36
2022/01/06 01:21:12;;;;;;;6.20;2.90;;;;;;98884.98;;;;106922;1279;64802;-35
2022/01/06 01:23:39;;;;;;;5.60;2.70;;;;;;98883.70;;;;106945;1280;64920;-36
2022/01/06 01:26:07;;;;;;;6.10;2.70;;;;;;98885.96;;;;107001;1280;66743;-32
2022/01/06 01:28:43;;;;;;;5.30;2.50;;;;;;98882.41;;;;106767;1279;64873;-35
2022/01/06 01:33:40;;;;;;;5.90;3.00;;;;;;98875.16;;;;106928;1279;64773;-33
2022/01/06 01:36:06;;;;;;;5.70;2.70;;;;;;98874.97;;;;107094;1278;64896;-37
2022/01/06 01:38:36;;;;;;;5.50;2.50;;;;;;98868.70;;;;106908;1280;66525;-33
2022/01/06 01:41:06;;;;;;;5.90;2.50;;;;;;98871.52;;;;106962;1280;64898;-29
2022/01/06 01:43:33;;;;;;;5.70;2.70;;;;;;98874.73;;;;106982;1280;64750;-30
2022/01/06 01:46:09;;;;;;;5.20;2.40;;;;;;98881.70;;;;106966;1279;64753;-29
2022/01/06 01:48:41;;;;;;;4.90;2.20;;;;;;98883.84;;;;107007;1280;64790;-31
2022/01/06 01:51:09;;;;;;;7.30;2.70;;;;;;98884.39;;;;107018;1280;66178;-33
2022/01/06 01:53:38;;;;;;;6.10;2.70;;;;;;98892.33;;;;106958;1280;64759;-33
2022/01/06 01:56:07;;;;;;;6.40;2.70;;;;;;98892.42;;;;106953;1280;64748;-30
2022/01/06 01:58:36;;;;;;;5.10;2.30;;;;;;98893.17;;;;106886;1280;64934;-31
2022/01/06 02:01:04;;;;;;;5.40;2.70;;;;;;98893.66;;;;106930;1280;65074;-31
2022/01/06 02:03:31;;;;;;;6.40;2.70;;;;;;98893.84;;;;106863;1280;64914;-31
2022/01/06 02:05:59;;;;;;;5.50;2.50;;;;;;98896.06;;;;106990;1280;65218;-33
2022/01/06 02:08:26;;;;;;;6.30;2.50;;;;;;98893.59;;;;106989;1280;64760;-36
2022/01/06 02:10:54;;;;;;;4.80;2.20;;;;;;98896.56;;;;106868;1280;64859;-36
2022/01/06 02:13:28;;;;;;;5.10;2.40;;;;;;98895.84;;;;106959;1279;64746;-36
2022/01/06 02:15:59;;;;;;;4.40;2.10;;;;;;98896.04;;;;106938;1279;64861;-45
2022/01/06 02:18:28;;;;;;;5.00;2.30;;;;;;98895.77;;;;106854;1280;64972;-35
2022/01/06 02:20:56;;;;;;;5.70;2.30;;;;;;98896.80;;;;106989;1279;64898;-33
2022/01/06 02:23:23;;;;;;;5.30;2.40;;;;;;98897.90;;;;106853;1279;64724;-33
2022/01/06 02:25:50;;;;;;;4.30;2.40;;;;;;98895.17;;;;106984;1280;65089;-34
2022/01/06 02:28:24;;;;;;;3.90;1.90;;;;;;98899.88;;;;106872;1280;65893;-31
2022/01/06 02:30:54;;;;;;;4.70;1.90;;;;;;98896.61;;;;106944;1280;64785;-33
2022/01/06 02:33:22;;;;;;;4.50;2.00;;;;;;98898.66;;;;106875;1280;64904;-34
2022/01/06 02:35:51;;;;;;;4.00;1.90;;;;;;98897.67;;;;106871;1280;65473;-34
2022/01/06 02:38:18;;;;;;;5.20;2.20;;;;;;98892.12;;;;107006;1279;64891;-33
2022/01/06 02:40:47;;;;;;;4.50;2.20;;;;;;98890.78;;;;106978;1280;65390;-43
2022/01/06 02:43:17;;;;;;;4.60;2.00;;;;;;98896.66;;;;106991;1280;64872;-35
2022/01/06 02:45:46;;;;;;;5.10;2.40;;;;;;98899.95;;;;106855;1280;64842;-32
2022/01/06 02:48:14;;;;;;;5.30;2.00;;;;;;98897.39;;;;106975;1280;64860;-31
2022/01/06 02:50:47;;;;;;;4.70;2.00;;;;;;98895.34;;;;106988;1280;64992;-31
2022/01/06 02:53:17;;;;;;;;;;;;;;98888.73;;;;107007;1280;64723;-31
2022/01/06 02:55:50;;;;;;;5.20;2.10;;;;;;98881.65;;;;106921;1280;64882;-27
2022/01/06 02:58:18;;;;;;;5.00;2.00;;;;;;98882.54;;;;106847;1280;64796;-32
2022/01/06 03:00:46;;;;;;;4.60;1.90;;;;;;98880.71;;;;107000;1280;64764;-34
2022/01/06 03:03:13;;;;;;;4.60;1.90;;;;;;98882.25;;;;106928;1279;64923;-35
2022/01/06 03:05:41;;;;;;;4.50;2.00;;;;;;98884.52;;;;106888;1280;65176;-30
2022/01/06 03:08:08;;;;;;;4.50;2.30;;;;;;98886.63;;;;106892;1280;64774;-30
2022/01/06 03:10:41;;;;;;;5.00;2.00;;;;;;98887.96;;;;106973;1280;64798;-35
2022/01/06 03:13:08;;;;;;;4.50;1.90;;;;;;98887.69;;;;106966;1280;64773;-37
2022/01/06 03:15:35;;;;;;;4.60;2.20;;;;;;98890.92;;;;106987;1280;64930;-35
2022/01/06 03:18:03;;;;;;;4.00;2.10;;;;;;98889.21;;;;106916;1279;64986;-41
2022/01/06 03:20:30;;;;;;;4.40;2.00;;;;;;98890.94;;;;106883;1280;64886;-32
2022/01/06 03:22:58;;;;;;;4.80;1.90;;;;;;98894.52;;;;106923;1279;64894;-35
2022/01/06 03:25:26;;;;;;;4.10;2.30;;;;;;98898.67;;;;106914;1279;64898;-36
2022/01/06 03:27:53;;;;;;;4.40;1.80;;;;;;98905.36;;;;106954;1279;64884;-38
2022/01/06 03:30:22;;;;;;;3.70;1.60;;;;;;98905.05;;;;106968;1279;66499;-34
2022/01/06 03:32:51;;;;;;;4.60;2.00;;;;;;98904.23;;;;106811;1281;64899;-35
2022/01/06 03:35:21;;;;;;;4.50;2.00;;;;;;98905.49;;;;106900;1279;64901;-38
2022/01/06 03:37:50;;;;;;;5.00;2.20;;;;;;98911.66;;;;106769;1281;64958;-50
2022/01/06 03:40:19;;;;;;;5.00;2.00;;;;;;98919.91;;;;106877;1281;63592;-31
2022/01/06 03:42:46;;;;;;;3.50;1.70;;;;;;98922.91;;;;106888;1281;66276;-31
2022/01/06 03:45:17;;;;;;;4.80;2.20;;;;;;98925.05;;;;106921;1281;65014;-31
2022/01/06 03:47:45;;;;;;;4.50;1.90;;;;;;98930.11;;;;106916;1279;64785;-32
2022/01/06 03:50:14;;;;;;;3.90;1.70;;;;;;98934.36;;;;106773;1281;64881;-36
2022/01/06 03:52:41;;;;;;;5.00;1.70;;;;;;98934.09;;;;106936;1281;64862;-35
2022/01/06 03:55:13;;;;;;;4.30;1.70;;;;;;98932.80;;;;106727;1281;68329;-35
2022/01/06 03:57:40;;;;;;;4.00;1.80;;;;;;98936.30;;;;106914;1280;64858;-35
2022/01/06 04:00:11;;;;;;;4.00;1.80;;;;;;98936.77;;;;106788;1281;64939;-35
2022/01/06 04:02:39;;;;;;;4.50;1.80;;;;;;98943.55;;;;106744;1280;64959;-34
2022/01/06 04:05:08;;;;;;;4.00;1.70;;;;;;98945.91;;;;106918;1281;64747;-34
2022/01/06 04:07:36;;;;;;;6.30;2.00;;;;;;98946.73;;;;106526;1282;64908;-35
2022/01/06 04:10:06;;;;;;;5.40;2.20;;;;;;98950.81;;;;106879;1281;64788;-34
2022/01/06 04:12:35;;;;;;;3.40;1.60;;;;;;98949.58;;;;106925;1281;64854;-34
2022/01/06 04:15:11;;;;;;;4.90;2.00;;;;;;98957.03;;;;106907;1281;64775;-32
2022/01/06 04:17:40;;;;;;;3.60;1.40;;;;;;98959.01;;;;106828;1281;64932;-38
2022/01/06 04:20:12;;;;;;;3.90;1.90;;;;;;98962.20;;;;106942;1281;66302;-34
2022/01/06 04:22:40;;;;;;;3.80;1.80;;;;;;98963.89;;;;106869;1281;64760;-34
2022/01/06 04:25:08;;;;;;;4.00;1.80;;;;;;98962.24;;;;106842;1281;64736;-35
2022/01/06 04:27:36;;;;;;;4.30;2.00;;;;;;98965.16;;;;106909;1279;64773;-34
2022/01/06 04:30:05;;;;;;;4.20;2.10;;;;;;98964.41;;;;106880;1279;64888;-33
2022/01/06 04:32:34;;;;;;;3.80;1.60;;;;;;98968.04;;;;106905;1281;64848;-34
2022/01/06 04:35:03;;;;;;;4.40;1.80;;;;;;98971.48;;;;106924;1281;64771;-32
2022/01/06 04:37:30;;;;;;;3.90;1.90;;;;;;98971.27;;;;106917;1281;64781;-32
2022/01/06 04:39:57;;;;;;;3.80;1.80;;;;;;98974.31;;;;106893;1281;64771;-32
2022/01/06 04:42:26;;;;;;;4.70;1.90;;;;;;98974.54;;;;106887;1281;64922;-33
2022/01/06 04:44:53;;;;;;;4.30;1.80;;;;;;98973.67;;;;106938;1278;65941;-32
2022/01/06 04:47:20;;;;;;;4.00;1.80;;;;;;98981.15;;;;106879;1281;64778;-32
2022/01/06 04:49:48;;;;;;;3.80;1.70;;;;;;98981.83;;;;106898;1281;64848;-33
2022/01/06 04:52:15;;;;;;;3.90;1.60;;;;;;98989.60;;;;106792;1281;65457;-34
2022/01/06 04:54:42;;;;;;;3.90;1.90;;;;;;98993.13;;;;106808;1281;64905;-34
2022/01/06 04:57:10;;;;;;;4.40;2.00;;;;;;99001.86;;;;106914;1281;66443;-34
2022/01/06 04:59:37;;;;;;;3.50;1.60;;;;;;99002.80;;;;106884;1281;64772;-32
2022/01/06 05:02:05;;;;;;;3.20;1.70;;;;;;99000.88;;;;106795;1281;64970;-35
2022/01/06 05:04:32;;;;;;;3.70;1.80;;;;;;99002.98;;;;106921;1281;64830;-39
2022/01/06 05:06:59;;;;;;;4.20;1.80;;;;;;99004.05;;;;106856;1281;64966;-34
2022/01/06 05:09:27;;;;;;;3.80;1.50;;;;;;99008.92;;;;106880;1279;66007;-32
2022/01/06 05:11:54;;;;;;;3.60;1.60;;;;;;99010.41;;;;106738;1281;64981;-32
2022/01/06 05:14:21;;;;;;;3.30;1.60;;;;;;99016.71;;;;106902;1281;64775;-35
2022/01/06 05:16:48;;;;;;;3.80;1.60;;;;;;99011.95;;;;106893;1281;64760;-38
2022/01/06 05:19:16;;;;;;;3.10;1.60;;;;;;99015.92;;;;106956;1280;64904;-32
2022/01/06 05:21:43;;;;;;;3.90;1.80;;;;;;99018.13;;;;106932;1281;66380;-32
2022/01/06 05:24:15;;;;;;;3.40;1.60;;;;;;99019.84;;;;106805;1281;64884;-33
2022/01/06 05:26:43;;;;;;;3.70;1.60;;;;;;99018.81;;;;106869;1281;64926;-32
2022/01/06 05:29:13;;;;;;;3.20;1.40;;;;;;99018.52;;;;106918;1280;65413;-31
2022/01/06 05:31:41;;;;;;;3.30;1.70;;;;;;99023.50;;;;106995;1280;64649;-32
2022/01/06 05:34:08;;;;;;;3.60;1.60;;;;;;99025.06;;;;107005;1280;65234;-33
2022/01/06 05:36:35;;;;;;;3.30;1.40;;;;;;99025.73;;;;106964;1280;65013;-34
2022/01/06 05:39:03;;;;;;;3.50;1.40;;;;;;99022.82;;;;106840;1280;64854;-32
2022/01/06 05:41:31;;;;;;;3.80;1.70;;;;;;99019.30;;;;106965;1278;64792;-32
2022/01/06 05:43:59;;;;;;;3.60;1.50;;;;;;99020.96;;;;106861;1280;64899;-32
2022/01/06 05:46:26;;;;;;;4.00;1.70;;;;;;99013.09;;;;106993;1280;66850;-33
2022/01/06 05:48:53;;;;;;;2.90;1.40;;;;;;99012.05;;;;106955;1280;64859;-35
2022/01/06 05:51:21;;;;;;;3.90;1.40;;;;;;99014.38;;;;106946;1280;64769;-34
2022/01/06 05:53:50;;;;;;;4.50;1.50;;;;;;99015.32;;;;106944;1280;64763;-36
2022/01/06 05:56:17;;;;;;;3.30;1.40;;;;;;99018.94;;;;106981;1280;64745;-34
2022/01/06 05:58:46;;;;;;;3.90;1.40;;;;;;99025.13;;;;107015;1280;65298;-33
2022/01/06 06:01:14;;;;;;;3.30;1.40;;;;;;99025.99;;;;106900;1279;64856;-32
2022/01/06 06:03:41;;;;;;;4.30;1.50;;;;;;99031.57;;;;106976;1280;64892;-32
2022/01/06 06:06:09;;;;;;;2.80;1.30;;;;;;99035.90;;;;106969;1280;64724;-34
2022/01/06 06:08:36;;;;;;;3.00;1.30;;;;;;99042.02;;;;106994;1280;64735;-34
2022/01/06 06:11:03;;;;;;;2.40;1.20;;;;;;99046.35;;;;106979;1280;67289;-34
2022/01/06 06:13:31;;;;;;;4.00;1.40;;;;;;99053.33;;;;106828;1280;64993;-34
2022/01/06 06:15:58;;;;;;;2.80;1.30;;;;;;99057.54;;;;106966;1280;64849;-31
2022/01/06 06:18:28;;;;;;;3.60;1.30;;;;;;99063.13;;;;106962;1280;64910;-32
2022/01/06 06:20:55;;;;;;;3.10;1.20;;;;;;99067.22;;;;106800;1280;64874;-32
2022/01/06 06:23:22;;;;;;;3.30;1.20;;;;;;99072.96;;;;106995;1280;64992;-32
2022/01/06 06:25:49;;;;;;;3.00;1.20;;;;;;99075.64;;;;106979;1280;64847;-34
2022/01/06 06:28:16;;;;;;;2.40;1.00;;;;;;99080.06;;;;106944;1280;64972;-34
2022/01/06 06:30:43;;;;;;;3.30;1.30;;;;;;99088.94;;;;106966;1279;64862;-34
2022/01/06 06:33:10;;;;;;;3.10;1.40;;;;;;99089.60;;;;106963;1279;64617;-34
2022/01/06 06:35:38;;;;;;;2.80;1.30;;;;;;99096.77;;;;106989;1280;66950;-32
2022/01/06 06:38:05;;;;;;;2.70;1.10;;;;;;99099.59;;;;106952;1280;64718;-31
2022/01/06 06:40:33;;;;;;;3.20;1.30;;;;;;99103.15;;;;106973;1280;64749;-31
2022/01/06 06:43:00;;;;;;;2.70;1.20;;;;;;99108.21;;;;106954;1279;64871;-31
2022/01/06 06:45:28;;;;;;;2.80;1.20;;;;;;99111.81;;;;106984;1280;64849;-34
2022/01/06 06:47:55;;;;;;;3.30;1.20;;;;;;99117.45;;;;107011;1280;64744;-34
2022/01/06 06:50:22;;;;;;;2.30;1.20;;;;;;99118.13;;;;106878;1280;64813;-31
2022/01/06 06:52:50;;;;;;;2.40;1.00;;;;;;99118.95;;;;106973;1279;64877;-32
2022/01/06 06:55:17;;;;;;;3.10;1.20;;;;;;99127.11;;;;106950;1280;64723;-31
2022/01/06 06:57:44;;;;;;;3.10;1.20;;;;;;99127.23;;;;106988;1279;64763;-31
2022/01/06 07:00:13;;;;;;;2.40;1.20;;;;;;99134.49;;;;106979;1280;66061;-34
2022/01/06 07:02:40;;;;;;;2.80;1.20;;;;;;99139.24;;;;107002;1278;64864;-34
2022/01/06 07:05:08;;;;;;;1.50;0.90;;;;;;99139.67;;;;106873;1280;64840;-34
2022/01/06 07:07:36;;;;;;;3.30;1.20;;;;;;99144.56;;;;106995;1280;64889;-34
2022/01/06 07:10:05;;;;;;;3.40;1.10;;;;;;99147.95;;;;106886;1280;64934;-32
2022/01/06 07:12:32;;;;;;;2.50;1.10;;;;;;99148.71;;;;107007;1280;66169;-32
2022/01/06 07:15:02;;;;;;;3.00;1.10;;;;;;99147.79;;;;106947;1279;64839;-34
2022/01/06 07:17:29;;;;;;;4.00;1.30;;;;;;99160.23;;;;106982;1280;64953;-34
2022/01/06 07:19:56;;;;;;;2.80;1.10;;;;;;99164.45;;;;106946;1280;64891;-34
2022/01/06 07:22:23;;;;;;;2.50;1.00;;;;;;99167.91;;;;106987;1280;64774;-34
2022/01/06 07:24:50;;;;;;;2.40;0.90;;;;;;99170.51;;;;106974;1280;65266;-34
2022/01/06 07:27:18;;;;;;;2.50;1.10;;;;;;99174.26;;;;106952;1280;64721;-34
2022/01/06 07:29:46;;;;;;;3.00;1.10;;;;;;99174.40;;;;106786;1280;64728;-32
2022/01/06 07:32:13;;;;;;;2.80;1.10;;;;;;99177.66;;;;106959;1280;64761;-38
2022/01/06 07:34:41;;;;;;;2.70;0.90;;;;;;99188.48;;;;106998;1280;64760;-32
2022/01/06 07:37:08;;;;;;;3.10;1.20;;;;;;99196.84;;;;106973;1280;65973;-31
2022/01/06 07:39:36;;;;;;;2.30;0.90;;;;;;99199.23;;;;106978;1280;64906;-31
2022/01/06 07:42:05;;;;;;;3.50;1.10;;;;;;99205.53;;;;106911;1280;64903;-31
2022/01/06 07:44:32;;;;;;;3.50;1.10;;;;;;99206.08;;;;106992;1280;64870;-31
2022/01/06 07:47:00;;;;;;;2.90;1.10;;;;;;99208.67;;;;107001;1280;64770;-31
2022/01/06 07:49:27;;;;;;;2.60;1.10;;;;;;99214.46;;;;106995;1280;66117;-32
2022/01/06 07:51:54;;;;;;;3.00;1.30;;;;;;99222.44;;;;106958;1280;64846;-33
2022/01/06 07:54:22;;;;;;;3.40;1.10;;;;;;99219.58;;;;106994;1278;64971;-34
2022/01/06 07:56:50;;;;;;;2.40;1.00;;;;;;99224.08;;;;106943;1280;64670;-34
2022/01/06 07:59:19;;;;;;;2.40;0.90;;;;;;99220.79;;;;106864;1280;64967;-32
2022/01/06 08:01:47;;;;;;;2.80;1.10;;;;;;99229.56;;;;106785;1280;65275;-32
2022/01/06 08:04:14;;;;;;;2.00;0.90;;;;;;99233.50;;;;106969;1280;64728;-34
2022/01/06 08:06:41;;;;;;;2.80;0.90;;;;;;99231.52;;;;106954;1280;64845;-34
2022/01/06 08:09:09;;;;;;;2.80;1.10;;;;;;99235.40;;;;106932;1279;64898;-32
2022/01/06 08:11:36;;;;;;;3.20;1.30;;;;;;99238.67;;;;106933;1280;64884;-35
2022/01/06 08:14:03;;;;;;;2.90;1.00;;;;;;99237.25;;;;106824;1279;64880;-36
2022/01/06 08:16:30;;;;;;;2.80;1.10;;;;;;99242.11;;;;106930;1279;64817;-34
2022/01/06 08:18:57;;;;;;;2.60;1.00;;;;;;99237.04;;;;106942;1279;64731;-32
2022/01/06 08:21:24;;;;;;;2.80;1.20;;;;;;99242.77;;;;106960;1280;64958;-31
2022/01/06 08:23:52;;;;;;;2.20;0.90;;;;;;99249.14;;;;106995;1280;65049;-32
2022/01/06 08:26:19;;;;;;;2.50;1.10;;;;;;99253.85;;;;106944;1280;66227;-34
2022/01/06 08:28:46;;;;;;;2.50;1.00;;;;;;99254.02;;;;106923;1279;65448;-31
2022/01/06 08:31:16;;;;;;;3.20;1.10;;;;;;99259.35;;;;106960;1280;64751;-32
2022/01/06 08:33:45;;;;;;;2.90;1.10;;;;;;99264.48;;;;106944;1279;64778;-32
2022/01/06 08:36:13;;;;;;;2.50;1.10;;;;;;99263.38;;;;106993;1280;64744;-36
2022/01/06 08:38:41;;;;;;;2.90;1.00;;;;;;99264.54;;;;106984;1280;66011;-32
2022/01/06 08:41:08;;;;;;;2.80;1.20;;;;;;99267.96;;;;106959;1280;64867;-36
2022/01/06 08:43:36;;;;;;;2.90;0.90;;;;;;99277.36;;;;106969;1280;64797;-34
2022/01/06 08:46:03;;;;;;;2.70;0.90;;;;;;99278.59;;;;106958;1280;64867;-31
2022/01/06 08:48:31;;;;;;;3.40;1.10;;;;;;99289.17;;;;106966;1280;64881;-32
2022/01/06 08:50:58;;;;;;;3.10;1.10;;;;;;99290.13;;;;106901;1281;65941;-32
2022/01/06 08:53:25;;;;;;;2.50;1.20;;;;;;99292.99;;;;106963;1280;64837;-32
2022/01/06 08:55:53;;;;;;;2.60;1.20;;;;;;99302.51;;;;106940;1280;64866;-38
2022/01/06 08:58:20;;;;;;;2.90;1.20;;;;;;99305.48;;;;106967;1280;64770;-34
2022/01/06 09:00:48;;;;;;;3.50;1.10;;;;;;99306.42;;;;106946;1279;64891;-37
2022/01/06 09:03:15;;;;;;;2.80;1.20;;;;;;99310.40;;;;106724;1280;323402;-34
2022/01/06 09:05:42;;;;;;;4.00;1.20;;;;;;99309.29;;;;106959;1280;64849;-32
2022/01/06 09:08:09;;;;;;;2.80;1.10;;;;;;99311.48;;;;106958;1280;64766;-32
2022/01/06 09:10:37;;;;;;;2.30;0.90;;;;;;99314.52;;;;106923;1280;64807;-35
2022/01/06 09:13:05;;;;;;;2.90;1.20;;;;;;99320.86;;;;106880;1280;64898;-37
2022/01/06 09:15:33;;;;;;;2.60;1.10;;;;;;99316.34;;;;106992;1279;65027;-34
2022/01/06 09:18:00;;;;;;;3.30;1.30;;;;;;99319.80;;;;106954;1280;64768;-34
2022/01/06 09:20:29;;;;;;;2.60;1.30;;;;;;99319.08;;;;106958;1278;65455;-32
2022/01/06 09:22:56;;;;;;;3.00;1.30;;;;;;99323.40;;;;106929;1280;64850;-31
2022/01/06 09:25:23;;;;;;;2.80;1.00;;;;;;99327.40;;;;106677;1280;64966;-32
2022/01/06 09:27:50;;;;;;;3.50;1.40;;;;;;99325.45;;;;106959;1280;66488;-32
2022/01/06 09:30:19;;;;;;;2.80;1.20;;;;;;99329.72;;;;106814;1281;64784;-32
2022/01/06 09:32:46;;;;;;;2.90;1.10;;;;;;99332.48;;;;106780;1281;64854;-33
2022/01/06 09:35:14;;;;;;;2.90;1.20;;;;;;99339.45;;;;106745;1281;64780;-34
2022/01/06 09:37:41;;;;;;;3.30;1.30;;;;;;99341.61;;;;106807;1281;64889;-36
2022/01/06 09:40:10;;;;;;;3.20;1.30;;;;;;99344.42;;;;106870;1281;67209;-31
2022/01/06 09:42:41;;;;;;;2.50;1.00;;;;;;99350.01;;;;106918;1281;64983;-31
2022/01/06 09:45:10;;;;;;;3.40;1.20;;;;;;99355.54;;;;106799;1281;64728;-33
2022/01/06 09:47:38;;;;;;;3.00;1.30;;;;;;99354.27;;;;106849;1281;65442;-34
2022/01/06 09:50:09;;;;;;;3.30;1.50;;;;;;99358.67;;;;106833;1281;64955;-32
2022/01/06 09:52:36;;;;;;;2.60;1.10;;;;;;99358.37;;;;106827;1281;65269;-32
2022/01/06 09:55:06;;;;;;;3.50;1.40;;;;;;99357.02;;;;106833;1281;64779;-34
2022/01/06 09:57:33;;;;;;;3.30;1.40;;;;;;99360.28;;;;106759;1281;64996;-34
2022/01/06 10:00:04;;;;;;;2.90;1.30;;;;;;99361.53;;;;106719;1281;64851;-34
2022/01/06 10:02:37;;;;;;;3.00;1.30;;;;;;99363.17;;;;106774;1281;65018;-34
2022/01/06 10:05:06;;;;;;;4.20;1.30;;;;;;99361.99;;;;106808;1281;66551;-33
2022/01/06 10:07:39;;;;;;;3.60;1.60;;;;;;99362.95;;;;106828;1281;64195;-33
2022/01/06 10:10:12;;;;;;;2.60;1.20;;;;;;99364.11;;;;106754;1281;64897;-32
2022/01/06 10:12:41;;;;;;;;;;;;;;99363.91;;;;106802;1281;65014;-32
2022/01/06 10:15:21;;;;;;;3.30;1.50;;;;;;99363.27;;;;106930;1281;63594;-32
2022/01/06 10:17:51;;;;;;;3.20;1.50;;;;;;99367.19;;;;106802;1280;66479;-31
2022/01/06 10:20:22;;;;;;;3.80;1.60;;;;;;99369.59;;;;106815;1281;64734;-33
2022/01/06 10:22:57;;;;;;;3.40;1.50;;;;;;99369.98;;;;106787;1281;64879;-34
2022/01/06 10:25:30;;;;;;;2.70;1.20;;;;;;99369.48;;;;106908;1281;64870;-33
2022/01/06 10:27:57;;;;;;;;;;;;;;99377.61;;;;106835;1281;64771;-34
2022/01/06 10:30:26;;;;;;;3.50;1.30;;;;;;99383.39;;;;106891;1280;66137;-32
2022/01/06 10:32:58;;;;;;;3.50;1.30;;;;;;99386.92;;;;106900;1281;64779;-31
2022/01/06 10:35:26;;;;;;;3.40;1.40;;;;;;99397.80;;;;106896;1280;64742;-33
2022/01/06 10:37:59;;;;;;;3.40;1.60;;;;;;99396.30;;;;106909;1281;64868;-31
2022/01/06 10:40:30;;;;;;;3.90;1.40;;;;;;99398.54;;;;106907;1280;64746;-31
2022/01/06 10:42:58;;;;;;;3.70;1.50;;;;;;99398.45;;;;106897;1281;65289;-31
2022/01/06 10:45:29;;;;;;;3.50;1.60;;;;;;99398.60;;;;106925;1281;64831;-36
2022/01/06 10:48:02;;;;;;;3.80;1.60;;;;;;99400.23;;;;106882;1281;64864;-34
2022/01/06 10:50:42;;;;;;;4.80;1.60;;;;;;99402.80;;;;106766;1281;64779;-36
2022/01/06 10:53:12;;;;;;;4.30;1.50;;;;;;99403.05;;;;106796;1282;63025;-37
2022/01/06 10:55:43;;;;;;;3.30;1.40;;;;;;99406.05;;;;106923;1280;64841;-37
2022/01/06 10:58:21;;;;;;;3.60;1.40;;;;;;99412.15;;;;106909;1281;64848;-35
2022/01/06 11:01:01;;;;;;;3.70;1.60;;;;;;99411.61;;;;106912;1281;64974;-36
2022/01/06 11:03:36;;;;;;;3.80;1.70;;;;;;99419.18;;;;106888;1280;64760;-35
2022/01/06 11:06:05;;;;;;;5.70;1.60;;;;;;99423.17;;;;106919;1281;64764;-36
2022/01/06 11:08:39;;;;;;;4.10;2.00;;;;;;99419.54;;;;106934;1280;64728;-35
2022/01/06 11:13:44;;;;;;;5.50;1.50;;;;;;99421.77;;;;106732;1281;65566;-36
2022/01/06 11:16:14;;;;;;;5.80;1.60;;;;;;99420.46;;;;106922;1281;64957;-36
2022/01/06 11:18:54;;;;;;;4.10;1.90;;;;;;99420.11;;;;106948;1281;64854;-36
2022/01/06 11:21:40;;;;;;;5.70;2.80;;;;;;99420.63;;;;106768;1281;65613;-36
2022/01/06 11:24:18;;;;;;;4.00;1.90;;;;;;99425.77;;;;106903;1281;64964;-37
2022/01/06 11:27:10;;;;;;;6.50;4.80;;;;;;99423.91;;;;106916;1281;64744;-36
2022/01/06 11:29:45;;;;;;;7.90;6.40;;;;;;99427.59;;;;106899;1281;64832;-34
2022/01/06 11:32:21;;;;;;;7.80;5.40;;;;;;99425.12;;;;106944;1281;64689;-34
2022/01/06 11:35:15;;;;;;;8.70;6.10;;;;;;99431.13;;;;106933;1280;66740;-36
2022/01/06 11:37:52;;;;;;;8.40;6.50;;;;;;99433.35;;;;106924;1281;64856;-35
2022/01/06 11:40:35;;;;;;;9.00;6.20;;;;;;99431.77;;;;106971;1280;64843;-34
2022/01/06 11:43:03;;;;;;;7.50;5.50;;;;;;99435.74;;;;106837;1281;64868;-35
2022/01/06 11:45:30;;;;;;;8.30;5.40;;;;;;99435.23;;;;106951;1280;64713;-35
2022/01/06 11:48:07;;;;;;;8.80;5.70;;;;;;99437.18;;;;106899;1281;64989;-35
2022/01/06 11:50:51;;;;;;;7.50;5.50;;;;;;99443.73;;;;106912;1281;64859;-34
2022/01/06 11:53:33;;;;;;;8.50;5.90;;;;;;99446.05;;;;106703;1281;64737;-34
2022/01/06 11:56:13;;;;;;;7.60;5.00;;;;;;99452.78;;;;106936;1281;64045;-35
2022/01/06 11:58:41;;;;;;;7.00;5.10;;;;;;99457.16;;;;106929;1281;64903;-35
2022/01/06 12:01:17;;;;;;;6.70;5.00;;;;;;99459.73;;;;106942;1281;65837;-33
2022/01/06 12:03:47;;;;;;;7.60;4.50;;;;;;99462.20;;;;106819;1281;64908;-34
2022/01/06 12:06:26;;;;;;;6.90;4.60;;;;;;99466.64;;;;106640;1281;64964;-35
2022/01/06 12:08:55;;;;;;;5.80;4.20;;;;;;99468.05;;;;106760;1281;64931;-36
2022/01/06 12:11:33;;;;;;;7.10;4.60;;;;;;99474.05;;;;106960;1281;64751;-35
2022/01/06 12:14:01;;;;;;;7.40;4.60;;;;;;99480.77;;;;106871;1281;66130;-34
2022/01/06 12:16:35;;;;;;;5.90;4.00;;;;;;99481.95;;;;106925;1281;64886;-36
2022/01/06 12:19:19;;;;;;;7.20;4.40;;;;;;99489.98;;;;106914;1281;64732;-36
2022/01/06 12:21:47;;;;;;;7.00;3.90;;;;;;99501.63;;;;106781;1281;64977;-37
2022/01/06 12:24:15;;;;;;;6.80;4.10;;;;;;99504.80;;;;106866;1281;62803;-35
2022/01/06 12:26:43;;;;;;;6.20;4.00;;;;;;99516.48;;;;106895;1281;64775;-36
2022/01/06 12:29:27;;;;;;;6.80;3.80;;;;;;99521.33;;;;106964;1280;64836;-35
2022/01/06 12:32:11;;;;;;;6.20;3.90;;;;;;99522.66;;;;106956;1280;64761;-36
2022/01/06 12:34:40;;;;;;;6.60;3.50;;;;;;99534.33;;;;106965;1278;65026;-34
2022/01/06 12:37:07;;;;;;;5.40;3.20;;;;;;99539.86;;;;106834;1281;64816;-38
2022/01/06 12:39:35;;;;;;;6.70;3.70;;;;;;99548.11;;;;106893;1281;66941;-36
2022/01/06 12:42:05;;;;;;;5.20;3.00;;;;;;99553.55;;;;106911;1280;65915;-36
2022/01/06 12:44:33;;;;;;;5.60;3.40;;;;;;99559.86;;;;106969;1281;64869;-34
2022/01/06 12:47:07;;;;;;;5.60;3.30;;;;;;99568.38;;;;106932;1281;64783;-34
2022/01/06 12:49:35;;;;;;;5.70;3.40;;;;;;99570.63;;;;106960;1279;64776;-36
2022/01/06 12:52:03;;;;;;;5.30;3.10;;;;;;99577.05;;;;106797;1283;67821;-35
2022/01/06 12:54:34;;;;;;;5.10;2.80;;;;;;99584.84;;;;106939;1281;64826;-34
2022/01/06 12:57:02;;;;;;;5.70;3.10;;;;;;99589.45;;;;106913;1281;64925;-34
2022/01/06 12:59:37;;;;;;;5.20;3.00;;;;;;99599.10;;;;106982;1281;64742;-36
2022/01/06 13:02:08;;;;;;;5.30;2.90;;;;;;99608.70;;;;106965;1283;64783;-36
2022/01/06 13:04:41;;;;;;;6.20;3.10;;;;;;99614.73;;;;106950;1281;65656;-35
2022/01/06 13:07:15;;;;;;;6.00;2.80;;;;;;99627.80;;;;106900;1281;64818;-36
2022/01/06 13:09:43;;;;;;;5.90;3.30;;;;;;99627.05;;;;106959;1281;64849;-34
2022/01/06 13:12:23;;;;;;;8.20;5.20;;;;;;99630.86;;;;106910;1281;64887;-34
2022/01/06 13:14:55;;;;;;;10.40;5.90;;;;;;99638.94;;;;106953;1279;63611;-35
2022/01/06 13:17:31;;;;;;;9.70;5.50;;;;;;99646.27;;;;106945;1281;68454;-36
2022/01/06 13:20:21;;;;;;;9.40;5.20;;;;;;99650.70;;;;106980;1283;64794;-35
2022/01/06 13:25:30;;;;;;;10.10;5.60;;;;;;99660.38;;;;106967;1281;64754;-34